SWR340 BIKF-BGGH
Flight info
| Callsign | SWR340 |
|---|---|
| Flight time | 0h 37m |
| Altitude | 38000 |
| Route | SORIR3B SORIR DCT SOPEN DCT SABAG DCT NAPIB DCT INBAN DCT GETDA |
| Aircraft | A359/H-SDE2E3GHIJ3J4J5LM1ORWXY/LB1D1 |
Departure
| Time | 2026-04-26 15:45 |
|---|---|
| Airport | Keflavik International Airport (BIKF) |
Arrival
| Time | 2026-04-26 16:23 |
|---|---|
| Airport | Nuuk International Airport (BGGH) |
| Time | Latitude | Longitude | Altitude | Speed | Heading |
|---|---|---|---|---|---|
| 2026-04-26 15:25 | 63.99242 | -22.62908 | 163 ft | 0 kts | 269° |
| 2026-04-26 15:35 | 63.99242 | -22.62889 | 169 ft | 4 kts | 268° |
| 2026-04-26 15:36 | 63.99243 | -22.62828 | 169 ft | 4 kts | 262° |
| 2026-04-26 15:36 | 63.99249 | -22.62769 | 169 ft | 4 kts | 244° |
| 2026-04-26 15:36 | 63.99263 | -22.62730 | 169 ft | 4 kts | 180° |
| 2026-04-26 15:36 | 63.99268 | -22.62731 | 169 ft | 0 kts | 150° |
| 2026-04-26 15:39 | 63.99256 | -22.62715 | 169 ft | 6 kts | 151° |
| 2026-04-26 15:39 | 63.99213 | -22.62679 | 169 ft | 13 kts | 170° |
| 2026-04-26 15:40 | 63.99043 | -22.62769 | 167 ft | 23 kts | 197° |
| 2026-04-26 15:40 | 63.98886 | -22.62878 | 166 ft | 21 kts | 203° |
| 2026-04-26 15:40 | 63.98853 | -22.63168 | 167 ft | 20 kts | 270° |
| 2026-04-26 15:40 | 63.98854 | -22.63515 | 168 ft | 24 kts | 270° |
| 2026-04-26 15:41 | 63.98854 | -22.63922 | 169 ft | 28 kts | 270° |
| 2026-04-26 15:41 | 63.98853 | -22.64380 | 170 ft | 31 kts | 270° |
| 2026-04-26 15:41 | 63.98853 | -22.64869 | 172 ft | 31 kts | 270° |
| 2026-04-26 15:41 | 63.98853 | -22.65305 | 173 ft | 24 kts | 270° |
| 2026-04-26 15:42 | 63.98796 | -22.65468 | 174 ft | 14 kts | 181° |
| 2026-04-26 15:42 | 63.98699 | -22.65468 | 174 ft | 14 kts | 180° |
| 2026-04-26 15:42 | 63.98594 | -22.65468 | 174 ft | 16 kts | 180° |
| 2026-04-26 15:42 | 63.98506 | -22.65442 | 175 ft | 4 kts | 128° |
| 2026-04-26 15:43 | 63.98507 | -22.65419 | 175 ft | 0 kts | 91° |
| 2026-04-26 15:44 | 63.98505 | -22.64602 | 170 ft | 96 kts | 90° |
| 2026-04-26 15:44 | 63.98512 | -22.62496 | 324 ft | 158 kts | 92° |
| 2026-04-26 15:45 | 63.98519 | -22.57242 | 1980 ft | 179 kts | 96° |
| 2026-04-26 15:45 | 63.98499 | -22.54175 | 2211 ft | 208 kts | 95° |
| 2026-04-26 15:46 | 63.98670 | -22.46974 | 3162 ft | 245 kts | 77° |
| 2026-04-26 15:46 | 63.99657 | -22.43795 | 3844 ft | 261 kts | 42° |
| 2026-04-26 15:46 | 64.01384 | -22.42284 | 4462 ft | 278 kts | 8° |
| 2026-04-26 15:46 | 64.02702 | -22.42261 | 4985 ft | 281 kts | 359° |
| 2026-04-26 15:47 | 64.07242 | -22.50784 | 7330 ft | 283 kts | 275° |
| 2026-04-26 15:47 | 64.09008 | -22.90417 | 11686 ft | 371 kts | 273° |
| 2026-04-26 15:47 | 64.10113 | -23.14254 | 14554 ft | 384 kts | 278° |
| 2026-04-26 15:48 | 64.14336 | -23.37308 | 17084 ft | 399 kts | 292° |
| 2026-04-26 15:48 | 64.19090 | -23.60763 | 19641 ft | 410 kts | 292° |
| 2026-04-26 15:48 | 64.23906 | -23.84819 | 22119 ft | 420 kts | 291° |
| 2026-04-26 15:48 | 64.28767 | -24.09386 | 24231 ft | 434 kts | 291° |
| 2026-04-26 15:49 | 64.33809 | -24.35190 | 26120 ft | 447 kts | 290° |
| 2026-04-26 15:49 | 64.38941 | -24.61787 | 27940 ft | 459 kts | 290° |
| 2026-04-26 15:49 | 64.43301 | -24.89608 | 29835 ft | 462 kts | 283° |
| 2026-04-26 15:49 | 64.47245 | -25.18445 | 30906 ft | 476 kts | 283° |
| 2026-04-26 15:50 | 64.51234 | -25.47600 | 32711 ft | 468 kts | 283° |
| 2026-04-26 15:50 | 64.55093 | -25.76327 | 34205 ft | 463 kts | 283° |
| 2026-04-26 15:50 | 64.58882 | -26.05067 | 35141 ft | 465 kts | 283° |
| 2026-04-26 15:50 | 64.62642 | -26.34080 | 35962 ft | 468 kts | 283° |
| 2026-04-26 15:51 | 64.66348 | -26.63175 | 36802 ft | 468 kts | 282° |
| 2026-04-26 15:51 | 64.69967 | -26.92123 | 37590 ft | 468 kts | 282° |
| 2026-04-26 15:51 | 64.72922 | -27.21783 | 38215 ft | 467 kts | 278° |
| 2026-04-26 15:51 | 64.75651 | -27.51589 | 38709 ft | 469 kts | 279° |
| 2026-04-26 15:52 | 64.78425 | -27.81613 | 38820 ft | 471 kts | 278° |
| 2026-04-26 15:52 | 64.83791 | -28.41930 | 38824 ft | 471 kts | 278° |
| 2026-04-26 15:53 | 64.88885 | -29.02186 | 38783 ft | 472 kts | 277° |
| 2026-04-26 15:53 | 64.93772 | -29.63139 | 38771 ft | 472 kts | 277° |
| 2026-04-26 15:54 | 64.98400 | -30.24198 | 38745 ft | 473 kts | 276° |
| 2026-04-26 15:54 | 65.02790 | -30.85627 | 38748 ft | 473 kts | 275° |
| 2026-04-26 15:55 | 65.06899 | -31.46813 | 38716 ft | 473 kts | 275° |
| 2026-04-26 15:55 | 65.10792 | -32.08764 | 38725 ft | 473 kts | 274° |
| 2026-04-26 15:56 | 65.14427 | -32.70864 | 38713 ft | 474 kts | 274° |
| 2026-04-26 15:56 | 65.17805 | -33.33122 | 38755 ft | 474 kts | 273° |
| 2026-04-26 15:57 | 65.20915 | -33.95353 | 38752 ft | 475 kts | 272° |
| 2026-04-26 15:57 | 65.23780 | -34.57986 | 38765 ft | 474 kts | 271° |
| 2026-04-26 15:58 | 65.26364 | -35.20293 | 38767 ft | 471 kts | 270° |
| 2026-04-26 15:58 | 65.27286 | -35.82504 | 38771 ft | 469 kts | 268° |
| 2026-04-26 15:59 | 65.27743 | -36.44198 | 38793 ft | 464 kts | 265° |
| 2026-04-26 15:59 | 65.27952 | -37.05358 | 38786 ft | 463 kts | 266° |
| 2026-04-26 16:00 | 65.27899 | -37.67234 | 38795 ft | 467 kts | 266° |
| 2026-04-26 16:00 | 65.27601 | -38.29336 | 38808 ft | 467 kts | 265° |
| 2026-04-26 16:01 | 65.27038 | -38.91653 | 38822 ft | 472 kts | 265° |
| 2026-04-26 16:01 | 65.26222 | -39.54034 | 38817 ft | 472 kts | 264° |
| 2026-04-26 16:02 | 65.25138 | -40.16777 | 38835 ft | 473 kts | 264° |
| 2026-04-26 16:02 | 65.23790 | -40.79544 | 38847 ft | 472 kts | 264° |
| 2026-04-26 16:03 | 65.22476 | -41.31472 | 38880 ft | 471 kts | 264° |
| 2026-04-26 16:03 | 65.20665 | -41.93670 | 38847 ft | 468 kts | 263° |
| 2026-04-26 16:04 | 65.18247 | -42.65598 | 38824 ft | 468 kts | 263° |
| 2026-04-26 16:04 | 65.16316 | -43.16684 | 38804 ft | 466 kts | 262° |
| 2026-04-26 16:05 | 65.13780 | -43.78011 | 38765 ft | 464 kts | 263° |
| 2026-04-26 16:05 | 65.12013 | -44.39361 | 38696 ft | 466 kts | 264° |
| 2026-04-26 16:06 | 65.09918 | -45.00778 | 38666 ft | 468 kts | 264° |
| 2026-04-26 16:06 | 65.07566 | -45.62321 | 38762 ft | 468 kts | 263° |
| 2026-04-26 16:07 | 65.04981 | -46.23334 | 38780 ft | 466 kts | 263° |
| 2026-04-26 16:07 | 65.02142 | -46.84321 | 38785 ft | 466 kts | 263° |
| 2026-04-26 16:08 | 64.99061 | -47.45069 | 38796 ft | 465 kts | 262° |
| 2026-04-26 16:08 | 64.97430 | -47.75371 | 37961 ft | 465 kts | 262° |
| 2026-04-26 16:08 | 64.95734 | -48.05669 | 36938 ft | 465 kts | 262° |
| 2026-04-26 16:08 | 64.93974 | -48.35992 | 35974 ft | 465 kts | 262° |
| 2026-04-26 16:09 | 64.92180 | -48.65837 | 35059 ft | 465 kts | 262° |
| 2026-04-26 16:09 | 64.90303 | -48.95987 | 34148 ft | 466 kts | 262° |
| 2026-04-26 16:09 | 64.88369 | -49.26041 | 32518 ft | 461 kts | 262° |
| 2026-04-26 16:09 | 64.86374 | -49.56086 | 29013 ft | 468 kts | 262° |
| 2026-04-26 16:10 | 64.84339 | -49.85766 | 26450 ft | 449 kts | 261° |
| 2026-04-26 16:10 | 64.80754 | -50.13149 | 24177 ft | 431 kts | 247° |
| 2026-04-26 16:10 | 64.75682 | -50.38092 | 21703 ft | 414 kts | 245° |
| 2026-04-26 16:10 | 64.69706 | -50.60621 | 21159 ft | 413 kts | 221° |
| 2026-04-26 16:11 | 64.58847 | -50.69723 | 20320 ft | 424 kts | 194° |
| 2026-04-26 16:11 | 64.47354 | -50.74782 | 19294 ft | 415 kts | 195° |
| 2026-04-26 16:11 | 64.36195 | -50.80173 | 18307 ft | 405 kts | 195° |
| 2026-04-26 16:11 | 64.25391 | -50.85412 | 17155 ft | 402 kts | 195° |
| 2026-04-26 16:12 | 64.14487 | -50.90634 | 16049 ft | 396 kts | 195° |
| 2026-04-26 16:12 | 64.03779 | -50.95720 | 14917 ft | 389 kts | 195° |
| 2026-04-26 16:12 | 63.87415 | -51.03424 | 13274 ft | 382 kts | 195° |
| 2026-04-26 16:13 | 63.84811 | -51.04638 | 12986 ft | 381 kts | 195° |
| 2026-04-26 16:13 | 63.82211 | -51.05846 | 12697 ft | 380 kts | 195° |
| 2026-04-26 16:13 | 63.79622 | -51.07048 | 12422 ft | 379 kts | 195° |
| 2026-04-26 16:13 | 63.77126 | -51.08419 | 12202 ft | 362 kts | 201° |
| 2026-04-26 16:14 | 63.74921 | -51.10615 | 11785 ft | 332 kts | 215° |
| 2026-04-26 16:14 | 63.73191 | -51.13691 | 11383 ft | 304 kts | 230° |
| 2026-04-26 16:14 | 63.71270 | -51.21404 | 10310 ft | 273 kts | 259° |
| 2026-04-26 16:15 | 63.71044 | -51.25589 | 9586 ft | 267 kts | 273° |
| 2026-04-26 16:15 | 63.74478 | -51.38220 | 8021 ft | 249 kts | 324° |
| 2026-04-26 16:15 | 63.80133 | -51.47230 | 7112 ft | 239 kts | 324° |
| 2026-04-26 16:16 | 63.84582 | -51.54879 | 6169 ft | 233 kts | 324° |
| 2026-04-26 16:16 | 63.86065 | -51.57455 | 5901 ft | 229 kts | 324° |
| 2026-04-26 16:16 | 63.91090 | -51.66213 | 4868 ft | 227 kts | 325° |
| 2026-04-26 16:16 | 63.95906 | -51.74678 | 4063 ft | 204 kts | 326° |
| 2026-04-26 16:17 | 63.97999 | -51.78364 | 4054 ft | 173 kts | 327° |
| 2026-04-26 16:17 | 63.98980 | -51.79816 | 4024 ft | 168 kts | 335° |
| 2026-04-26 16:17 | 64.00080 | -51.80679 | 4020 ft | 169 kts | 349° |
| 2026-04-26 16:17 | 64.01270 | -51.80729 | 4016 ft | 174 kts | 7° |
| 2026-04-26 16:18 | 64.02426 | -51.79946 | 3986 ft | 173 kts | 13° |
| 2026-04-26 16:18 | 64.04719 | -51.78321 | 3472 ft | 172 kts | 12° |
| 2026-04-26 16:19 | 64.06955 | -51.76709 | 2906 ft | 164 kts | 12° |
| 2026-04-26 16:19 | 64.08010 | -51.75946 | 2665 ft | 158 kts | 11° |
| 2026-04-26 16:19 | 64.09961 | -51.74539 | 2188 ft | 132 kts | 10° |
| 2026-04-26 16:20 | 64.10802 | -51.73932 | 1985 ft | 120 kts | 10° |
| 2026-04-26 16:20 | 64.12272 | -51.72873 | 1651 ft | 106 kts | 8° |
| 2026-04-26 16:20 | 64.12979 | -51.72359 | 1493 ft | 106 kts | 10° |
| 2026-04-26 16:21 | 64.13708 | -51.71836 | 1283 ft | 112 kts | 9° |
| 2026-04-26 16:21 | 64.14438 | -51.71305 | 1107 ft | 108 kts | 9° |
| 2026-04-26 16:21 | 64.15151 | -51.70790 | 942 ft | 107 kts | 8° |
| 2026-04-26 16:21 | 64.15860 | -51.70276 | 777 ft | 107 kts | 9° |
| 2026-04-26 16:22 | 64.16580 | -51.69757 | 629 ft | 109 kts | 10° |
| 2026-04-26 16:22 | 64.17336 | -51.69209 | 484 ft | 117 kts | 11° |
| 2026-04-26 16:22 | 64.18098 | -51.68641 | 275 ft | 109 kts | 9° |
| 2026-04-26 16:22 | 64.18740 | -51.68190 | 267 ft | 79 kts | 18° |
| 2026-04-26 16:23 | 64.19130 | -51.67903 | 271 ft | 49 kts | 17° |
| 2026-04-26 16:23 | 64.19418 | -51.67693 | 269 ft | 39 kts | 18° |
| 2026-04-26 16:23 | 64.19650 | -51.67523 | 269 ft | 31 kts | 17° |
| 2026-04-26 16:23 | 64.19840 | -51.67385 | 265 ft | 27 kts | 17° |
| 2026-04-26 16:24 | 64.19968 | -51.67362 | 260 ft | 9 kts | 17° |
| 2026-04-26 16:24 | 64.19976 | -51.67322 | 260 ft | 1 kts | 100° |
| 2026-04-26 16:24 | 64.19967 | -51.67311 | 260 ft | 3 kts | 148° |
| 2026-04-26 16:24 | 64.19897 | -51.67342 | 262 ft | 19 kts | 197° |
| 2026-04-26 16:25 | 64.19716 | -51.67474 | 269 ft | 36 kts | 198° |
| 2026-04-26 16:25 | 64.19444 | -51.67672 | 269 ft | 43 kts | 198° |
| 2026-04-26 16:25 | 64.19176 | -51.67867 | 271 ft | 39 kts | 198° |
| 2026-04-26 16:25 | 64.18942 | -51.68039 | 269 ft | 33 kts | 198° |
| 2026-04-26 16:26 | 64.18749 | -51.68181 | 267 ft | 22 kts | 198° |
| 2026-04-26 16:26 | 64.18667 | -51.68212 | 266 ft | 9 kts | 160° |
| 2026-04-26 16:26 | 64.18630 | -51.68029 | 260 ft | 12 kts | 108° |
| 2026-04-26 16:26 | 64.18606 | -51.67859 | 260 ft | 11 kts | 108° |
| 2026-04-26 16:27 | 64.18575 | -51.67778 | 260 ft | 5 kts | 152° |
| 2026-04-26 16:27 | 64.18560 | -51.67760 | 260 ft | 0 kts | 153° |